createdAt,value
2023-05-05T00:00:26.255Z,13.21
2023-05-05T00:00:57.772Z,13.22
2023-05-05T00:01:29.289Z,13.21
2023-05-05T00:02:00.834Z,13.19
2023-05-05T00:02:32.449Z,13.13
2023-05-05T00:03:04.014Z,13.17
2023-05-05T00:03:35.953Z,13.07
2023-05-05T00:04:07.694Z,12.95
2023-05-05T00:04:39.240Z,13.20
2023-05-05T00:05:10.808Z,13.32
2023-05-05T00:05:42.480Z,13.33
2023-05-05T00:06:14.646Z,13.32
2023-05-05T00:06:46.340Z,13.33
2023-05-05T00:07:17.872Z,13.29
2023-05-05T00:07:49.851Z,13.23
2023-05-05T00:08:21.899Z,13.22
2023-05-05T00:08:53.404Z,13.28
2023-05-05T00:09:25.112Z,13.29
2023-05-05T00:09:56.647Z,13.38
2023-05-05T00:10:28.269Z,13.31
2023-05-05T00:11:00.078Z,13.23
2023-05-05T00:11:31.626Z,13.19
2023-05-05T00:12:03.171Z,13.20
2023-05-05T00:12:34.775Z,13.10
2023-05-05T00:13:06.791Z,13.17
2023-05-05T00:13:38.740Z,13.20
2023-05-05T00:14:11.148Z,12.96
2023-05-05T00:14:42.713Z,12.82
2023-05-05T00:15:14.313Z,12.80
2023-05-05T00:15:47.024Z,12.76
2023-05-05T00:16:18.768Z,12.87
2023-05-05T00:16:50.445Z,13.09
2023-05-05T00:17:22.245Z,13.15
2023-05-05T00:17:53.910Z,13.15
2023-05-05T00:18:25.532Z,13.06
2023-05-05T00:18:57.291Z,13.11
2023-05-05T00:19:28.805Z,13.12
2023-05-05T00:20:00.850Z,13.14
2023-05-05T00:20:32.565Z,13.01
2023-05-05T00:21:04.650Z,13.00
2023-05-05T00:21:36.260Z,12.92
2023-05-05T00:22:07.784Z,12.83
2023-05-05T00:22:39.339Z,12.78
2023-05-05T00:23:10.958Z,12.85
2023-05-05T00:23:42.491Z,12.89
2023-05-05T00:24:14.018Z,12.90
2023-05-05T00:24:45.657Z,12.90
2023-05-05T00:25:17.273Z,12.67
2023-05-05T00:25:49.040Z,12.71
2023-05-05T00:26:21.504Z,12.65
2023-05-05T00:26:55.382Z,12.62
2023-05-05T00:27:27.065Z,13.03
2023-05-05T00:27:58.819Z,13.15
2023-05-05T00:28:30.760Z,13.24
2023-05-05T00:29:02.422Z,13.34
2023-05-05T00:29:33.929Z,13.17
2023-05-05T00:30:06.396Z,13.19
2023-05-05T00:30:39.773Z,13.11
2023-05-05T00:31:11.453Z,13.01
2023-05-05T00:31:43.040Z,12.98
2023-05-05T00:32:14.641Z,12.94
2023-05-05T00:32:49.358Z,12.97
2023-05-05T00:33:21.147Z,12.92
2023-05-05T00:33:52.762Z,12.94
2023-05-05T00:34:24.413Z,12.79
2023-05-05T00:34:56.232Z,12.54
2023-05-05T00:35:27.895Z,12.49
2023-05-05T00:35:59.573Z,12.57
2023-05-05T00:36:31.287Z,12.86
2023-05-05T00:37:03.358Z,12.88
2023-05-05T00:37:34.972Z,12.92
2023-05-05T00:38:07.094Z,12.77
2023-05-05T00:38:38.606Z,12.76
2023-05-05T00:39:10.891Z,12.68
2023-05-05T00:39:44.364Z,12.68
2023-05-05T00:40:16.245Z,12.68
2023-05-05T00:40:47.819Z,12.73
2023-05-05T00:41:19.451Z,12.74
2023-05-05T00:41:51.059Z,12.67
2023-05-05T00:42:22.649Z,12.64
2023-05-05T00:42:54.374Z,12.68
2023-05-05T00:43:25.951Z,12.72
2023-05-05T00:43:57.587Z,12.76
2023-05-05T00:44:38.490Z,12.76
2023-05-05T00:45:11.415Z,12.84
2023-05-05T00:45:47.474Z,12.72
2023-05-05T00:46:26.919Z,12.66
2023-05-05T00:46:58.503Z,12.81
2023-05-05T00:47:30.272Z,13.21
2023-05-05T00:48:02.113Z,13.36
2023-05-05T00:48:33.762Z,13.24
2023-05-05T00:49:06.661Z,13.24
2023-05-05T00:49:38.831Z,13.17
2023-05-05T00:50:12.139Z,13.16
2023-05-05T00:50:44.887Z,13.22
2023-05-05T00:51:16.938Z,13.42
2023-05-05T00:51:48.474Z,13.47
2023-05-05T00:52:20.317Z,13.28
2023-05-05T00:52:54.960Z,13.32
2023-05-05T00:53:27.178Z,13.27
2023-05-05T00:53:58.815Z,13.28
2023-05-05T00:54:30.509Z,13.36
2023-05-05T00:55:02.700Z,13.38
2023-05-05T00:55:35.064Z,13.36
2023-05-05T00:56:07.175Z,13.39
2023-05-05T00:56:39.108Z,13.42
2023-05-05T00:57:10.956Z,13.39
2023-05-05T00:57:42.777Z,13.39
2023-05-05T00:58:14.724Z,13.42
2023-05-05T00:58:46.810Z,13.39
2023-05-05T00:59:18.573Z,13.56
2023-05-05T00:59:50.272Z,13.70
2023-05-05T01:00:22.080Z,13.74
2023-05-05T01:00:53.806Z,13.74
2023-05-05T01:01:25.568Z,13.73
2023-05-05T01:01:57.575Z,13.65
2023-05-05T01:02:31.070Z,13.68
2023-05-05T01:03:03.322Z,13.65
2023-05-05T01:03:39.441Z,13.66
2023-05-05T01:04:11.055Z,13.71
2023-05-05T01:04:42.945Z,13.67
2023-05-05T01:05:15.580Z,13.55
2023-05-05T01:06:15.583Z,13.37
2023-05-05T01:06:53.100Z,13.44
2023-05-05T01:07:43.277Z,13.21
2023-05-05T01:09:01.797Z,13.35
2023-05-05T01:09:47.830Z,13.28
2023-05-05T01:10:43.139Z,13.26
2023-05-05T01:11:23.873Z,13.48
2023-05-05T01:12:03.857Z,13.57
2023-05-05T01:12:44.341Z,13.39
2023-05-05T01:13:37.805Z,13.31
2023-05-05T01:14:16.311Z,13.36
2023-05-05T01:14:54.936Z,13.40
2023-05-05T01:15:34.671Z,13.40
2023-05-05T01:16:16.937Z,13.49
2023-05-05T01:17:00.235Z,13.41
2023-05-05T01:17:38.592Z,13.45
2023-05-05T01:18:16.844Z,13.41
2023-05-05T01:19:01.389Z,13.18
2023-05-05T01:19:35.861Z,13.19
2023-05-05T01:20:16.758Z,13.22
2023-05-05T01:21:06.597Z,13.20
2023-05-05T01:21:47.486Z,13.23
2023-05-05T01:22:20.113Z,13.35
2023-05-05T01:22:55.515Z,13.26
2023-05-05T01:24:00.159Z,13.37
2023-05-05T01:24:39.697Z,13.18
2023-05-05T01:25:23.514Z,13.12
2023-05-05T01:26:05.765Z,13.22
2023-05-05T01:26:59.270Z,13.23
2023-05-05T01:27:44.802Z,13.09
2023-05-05T01:28:19.810Z,13.07
2023-05-05T01:29:07.743Z,13.00
2023-05-05T01:29:54.659Z,12.89
2023-05-05T01:30:55.027Z,12.89
2023-05-05T01:31:53.154Z,12.98
2023-05-05T01:32:26.544Z,13.32
2023-05-05T01:33:02.269Z,13.21
2023-05-05T01:33:55.030Z,13.02
2023-05-05T01:34:29.599Z,13.11
2023-05-05T01:35:15.301Z,13.35
2023-05-05T01:35:52.456Z,13.28
2023-05-05T01:36:28.428Z,13.31
2023-05-05T01:37:10.395Z,13.40
2023-05-05T01:37:52.317Z,13.50
2023-05-05T01:38:33.960Z,13.56
2023-05-05T01:39:09.272Z,13.44
2023-05-05T01:39:41.397Z,13.33
2023-05-05T01:40:14.473Z,13.25
2023-05-05T01:40:51.525Z,13.30
2023-05-05T01:41:29.845Z,13.46
2023-05-05T01:42:06.350Z,13.40
2023-05-05T01:42:41.628Z,13.35
2023-05-05T01:43:14.173Z,13.48
2023-05-05T01:43:47.495Z,13.39
2023-05-05T01:44:20.362Z,13.34
2023-05-05T01:44:53.177Z,13.41
2023-05-05T01:45:27.252Z,13.35
2023-05-05T01:45:59.578Z,13.19
2023-05-05T01:46:33.053Z,13.15
2023-05-05T01:47:05.362Z,12.98
2023-05-05T01:47:38.192Z,12.93
2023-05-05T01:48:12.567Z,13.15
2023-05-05T01:48:44.256Z,13.34
2023-05-05T01:49:16.425Z,13.35
2023-05-05T01:49:48.903Z,13.40
2023-05-05T01:50:22.657Z,13.19
2023-05-05T01:50:54.303Z,13.06
2023-05-05T01:51:28.734Z,13.12
2023-05-05T01:52:00.930Z,13.25
2023-05-05T01:52:34.432Z,13.27
2023-05-05T01:53:07.377Z,13.16
2023-05-05T01:53:39.559Z,13.20
2023-05-05T01:54:11.402Z,13.17
2023-05-05T01:54:44.211Z,13.15
2023-05-05T01:55:18.115Z,13.06
2023-05-05T01:55:50.192Z,13.10
2023-05-05T01:56:24.195Z,13.12
2023-05-05T01:56:57.476Z,12.99
2023-05-05T01:57:30.962Z,12.99
2023-05-05T01:58:03.834Z,13.08
2023-05-05T01:58:36.072Z,12.91
2023-05-05T01:59:09.986Z,12.92
2023-05-05T01:59:41.873Z,12.94
2023-05-05T02:00:16.799Z,12.99
2023-05-05T02:00:50.954Z,13.01
2023-05-05T02:01:24.647Z,13.09
2023-05-05T02:01:57.490Z,13.12
2023-05-05T02:02:31.950Z,13.13
2023-05-05T02:03:04.459Z,13.16
2023-05-05T02:03:37.771Z,13.18
2023-05-05T02:04:10.078Z,13.25
2023-05-05T02:04:43.523Z,13.25
2023-05-05T02:05:16.581Z,13.19
2023-05-05T02:05:49.138Z,13.24
2023-05-05T02:06:21.647Z,13.20
2023-05-05T02:06:53.528Z,13.16
2023-05-05T02:07:26.335Z,13.07
2023-05-05T02:07:59.027Z,13.06
2023-05-05T02:08:30.870Z,13.10
2023-05-05T02:09:03.315Z,13.16
2023-05-05T02:09:36.279Z,13.17
2023-05-05T02:10:08.462Z,13.18
2023-05-05T02:10:40.969Z,13.15
2023-05-05T02:11:12.854Z,13.15
2023-05-05T02:11:44.552Z,13.09
2023-05-05T02:12:16.675Z,13.11
2023-05-05T02:12:48.761Z,13.11
2023-05-05T02:13:20.706Z,13.10
2023-05-05T02:13:53.287Z,13.08
2023-05-05T02:14:27.319Z,13.01
2023-05-05T02:15:00.371Z,13.04
2023-05-05T02:15:33.692Z,13.00
2023-05-05T02:16:06.316Z,12.92
2023-05-05T02:16:38.639Z,13.02
2023-05-05T02:17:11.593Z,13.00
2023-05-05T02:17:43.726Z,12.93
2023-05-05T02:18:15.939Z,12.99
2023-05-05T02:18:48.024Z,12.94
2023-05-05T02:19:21.507Z,12.98
2023-05-05T02:19:54.613Z,12.94
2023-05-05T02:20:27.418Z,12.97
2023-05-05T02:20:59.251Z,12.97
2023-05-05T02:21:31.886Z,13.02
2023-05-05T02:22:03.544Z,13.10
2023-05-05T02:22:35.293Z,13.14
2023-05-05T02:23:08.049Z,13.04
2023-05-05T02:23:39.739Z,13.09
2023-05-05T02:24:11.556Z,13.06
2023-05-05T02:24:43.723Z,13.08
2023-05-05T02:25:17.644Z,13.07
2023-05-05T02:25:50.687Z,13.15
2023-05-05T02:26:23.092Z,13.18
2023-05-05T02:26:55.020Z,13.20
2023-05-05T02:27:26.920Z,13.21
2023-05-05T02:27:59.589Z,13.20
2023-05-05T02:28:49.252Z,13.17
2023-05-05T02:29:32.831Z,13.18
2023-05-05T02:30:09.304Z,13.19
2023-05-05T02:30:42.221Z,13.24
2023-05-05T02:31:14.416Z,13.25
2023-05-05T02:31:50.373Z,13.08
2023-05-05T02:32:40.600Z,13.22
2023-05-05T02:33:15.900Z,13.24
2023-05-05T02:33:48.764Z,13.34
2023-05-05T02:34:25.964Z,13.32
2023-05-05T02:34:58.709Z,13.34
2023-05-05T02:35:39.871Z,13.35
2023-05-05T02:36:20.707Z,13.32
2023-05-05T02:37:01.060Z,13.32
2023-05-05T02:37:37.088Z,13.36
2023-05-05T02:38:13.182Z,13.43
2023-05-05T02:38:47.391Z,13.42
2023-05-05T02:39:32.286Z,13.48
2023-05-05T02:40:08.545Z,13.50
2023-05-05T02:40:42.440Z,13.51
2023-05-05T02:41:17.212Z,13.48
2023-05-05T02:41:50.157Z,13.50
2023-05-05T02:42:32.478Z,13.51
2023-05-05T02:43:08.311Z,13.56
2023-05-05T02:43:41.537Z,13.62
2023-05-05T02:44:15.008Z,13.60
2023-05-05T02:44:47.622Z,13.63
2023-05-05T02:45:21.669Z,13.59
2023-05-05T02:45:54.975Z,13.63
2023-05-05T02:46:28.101Z,13.61
2023-05-05T02:46:59.856Z,13.59
2023-05-05T02:47:36.199Z,13.53
2023-05-05T02:48:07.972Z,13.54
2023-05-05T02:48:43.375Z,13.53
2023-05-05T02:49:15.511Z,13.53
2023-05-05T02:49:47.696Z,13.47
2023-05-05T02:50:20.838Z,13.54
2023-05-05T02:51:00.361Z,13.57
2023-05-05T02:51:37.174Z,13.61
2023-05-05T02:52:13.320Z,13.64
2023-05-05T02:52:46.454Z,13.64
2023-05-05T02:53:21.531Z,13.61
2023-05-05T02:53:53.190Z,13.68
2023-05-05T02:54:25.041Z,13.68
2023-05-05T02:54:58.145Z,13.71
2023-05-05T02:55:38.387Z,13.82
2023-05-05T02:56:25.062Z,13.72
2023-05-05T02:56:59.626Z,13.72
2023-05-05T02:57:38.879Z,13.73
2023-05-05T02:58:22.213Z,13.70
2023-05-05T02:58:57.394Z,13.77
2023-05-05T02:59:39.198Z,13.74
2023-05-05T03:00:13.770Z,13.69
2023-05-05T03:01:22.106Z,13.68
2023-05-05T03:02:00.866Z,13.71
2023-05-05T03:02:47.243Z,13.67
2023-05-05T03:03:41.034Z,13.72
2023-05-05T03:04:17.752Z,13.72
2023-05-05T03:05:06.521Z,13.59
2023-05-05T03:05:51.546Z,13.54
2023-05-05T03:06:25.325Z,13.52
2023-05-05T03:06:59.199Z,13.45
2023-05-05T03:07:49.604Z,13.53
2023-05-05T03:08:48.184Z,13.51
2023-05-05T03:09:43.845Z,13.46
2023-05-05T03:10:19.515Z,13.41
2023-05-05T03:10:59.542Z,13.41
2023-05-05T03:11:40.920Z,13.42
2023-05-05T03:12:19.152Z,13.41
2023-05-05T03:13:01.185Z,13.28
2023-05-05T03:13:40.700Z,13.33
2023-05-05T03:14:13.925Z,13.34
2023-05-05T03:14:48.159Z,13.34
2023-05-05T03:15:45.308Z,13.29
2023-05-05T03:16:18.366Z,13.20
2023-05-05T03:16:50.069Z,13.24
2023-05-05T03:17:22.879Z,13.23
2023-05-05T03:17:55.734Z,13.16
2023-05-05T03:18:29.197Z,13.12
2023-05-05T03:19:05.646Z,13.10
2023-05-05T03:19:40.555Z,12.97
2023-05-05T03:20:13.221Z,13.02
2023-05-05T03:20:47.532Z,12.87
2023-05-05T03:21:21.611Z,12.92
2023-05-05T03:21:54.425Z,12.93
2023-05-05T03:22:27.738Z,12.92
2023-05-05T03:23:01.367Z,12.77
2023-05-05T03:23:33.078Z,12.72
2023-05-05T03:24:15.712Z,12.73
2023-05-05T03:24:50.780Z,12.87
2023-05-05T03:25:42.156Z,12.81
2023-05-05T03:26:17.562Z,12.80
2023-05-05T03:26:49.701Z,12.88
2023-05-05T03:27:24.289Z,12.88
2023-05-05T03:27:56.424Z,12.84
2023-05-05T03:28:29.424Z,12.85
2023-05-05T03:29:05.698Z,12.84
2023-05-05T03:29:38.335Z,12.68
2023-05-05T03:30:14.648Z,12.58
2023-05-05T03:30:52.822Z,12.66
2023-05-05T03:31:24.581Z,12.73
2023-05-05T03:32:01.555Z,12.77
2023-05-05T03:32:34.352Z,12.79
2023-05-05T03:33:06.074Z,12.76
2023-05-05T03:33:37.678Z,12.62
2023-05-05T03:34:09.444Z,12.61
2023-05-05T03:34:47.200Z,12.66
2023-05-05T03:35:19.224Z,12.73
2023-05-05T03:35:50.969Z,12.73
2023-05-05T03:36:23.226Z,12.63
2023-05-05T03:36:56.246Z,12.41
2023-05-05T03:37:28.180Z,12.54
2023-05-05T03:37:59.743Z,12.56
2023-05-05T03:38:31.654Z,12.50
2023-05-05T03:39:03.782Z,12.51
2023-05-05T03:39:38.018Z,12.58
2023-05-05T03:40:10.722Z,12.53
2023-05-05T03:40:44.481Z,12.45
2023-05-05T03:41:20.152Z,12.50
2023-05-05T03:41:51.796Z,12.58
2023-05-05T03:42:25.597Z,12.60
2023-05-05T03:42:57.244Z,12.62
2023-05-05T03:43:29.070Z,12.68
2023-05-05T03:44:00.670Z,12.43
2023-05-05T03:44:32.280Z,12.40
2023-05-05T03:45:04.161Z,12.49
2023-05-05T03:45:35.753Z,12.46
2023-05-05T03:46:07.398Z,12.40
2023-05-05T03:46:39.200Z,12.43
2023-05-05T03:47:13.889Z,12.50
2023-05-05T03:47:46.035Z,12.40
2023-05-05T03:48:17.756Z,12.47
2023-05-05T03:48:49.372Z,12.49
2023-05-05T03:49:20.991Z,12.46
2023-05-05T03:49:53.250Z,12.36
2023-05-05T03:50:24.942Z,12.43
2023-05-05T03:50:56.498Z,12.37
2023-05-05T03:51:30.029Z,12.44
2023-05-05T03:52:02.503Z,12.49
2023-05-05T03:52:34.429Z,12.51
2023-05-05T03:53:05.993Z,12.44
2023-05-05T03:53:37.756Z,12.46
2023-05-05T03:54:11.631Z,12.49
2023-05-05T03:54:43.251Z,12.56
2023-05-05T03:55:14.878Z,12.56
2023-05-05T03:55:46.403Z,12.58
2023-05-05T03:56:18.027Z,12.57
2023-05-05T03:56:49.633Z,12.69
2023-05-05T03:57:21.161Z,12.56
2023-05-05T03:57:52.765Z,12.58
2023-05-05T03:58:24.364Z,12.56
2023-05-05T03:58:55.973Z,12.57
2023-05-05T03:59:27.696Z,12.55
2023-05-05T03:59:59.400Z,12.63
2023-05-05T04:00:31.662Z,12.68
2023-05-05T04:01:03.938Z,12.67
2023-05-05T04:01:35.773Z,12.61
2023-05-05T04:02:07.733Z,12.62
2023-05-05T04:02:39.450Z,12.59
2023-05-05T04:03:11.638Z,12.64
2023-05-05T04:03:43.870Z,12.69
2023-05-05T04:04:15.578Z,12.72
2023-05-05T04:04:47.169Z,12.76
2023-05-05T04:05:19.886Z,12.79
2023-05-05T04:05:51.845Z,12.80
2023-05-05T04:06:24.265Z,12.57
2023-05-05T04:06:55.847Z,12.49
2023-05-05T04:07:27.374Z,12.46
2023-05-05T04:07:59.306Z,12.53
2023-05-05T04:08:31.018Z,12.45
2023-05-05T04:09:03.535Z,12.51
2023-05-05T04:09:35.158Z,12.51
2023-05-05T04:10:07.654Z,12.46
2023-05-05T04:10:39.660Z,12.35
2023-05-05T04:11:11.233Z,12.31
2023-05-05T04:11:43.231Z,12.41
2023-05-05T04:12:15.072Z,12.42
2023-05-05T04:12:46.767Z,12.43
2023-05-05T04:13:18.554Z,12.33
2023-05-05T04:13:50.212Z,12.41
2023-05-05T04:14:23.075Z,12.38
2023-05-05T04:14:55.088Z,12.35
2023-05-05T04:15:26.710Z,12.36
2023-05-05T04:15:59.828Z,12.40
2023-05-05T04:16:31.596Z,12.48
2023-05-05T04:17:04.040Z,12.50
2023-05-05T04:17:35.661Z,12.53
2023-05-05T04:18:07.530Z,12.49
2023-05-05T04:18:39.125Z,12.43
2023-05-05T04:19:13.082Z,12.50
2023-05-05T04:19:45.075Z,12.51
2023-05-05T04:20:16.830Z,12.50
2023-05-05T04:20:48.716Z,12.41
2023-05-05T04:21:20.894Z,12.46
2023-05-05T04:21:52.960Z,12.45
2023-05-05T04:22:24.590Z,12.45
2023-05-05T04:22:56.120Z,12.44
2023-05-05T04:23:28.534Z,12.45
2023-05-05T04:24:00.184Z,12.45
2023-05-05T04:24:31.779Z,12.48
2023-05-05T04:25:04.230Z,12.50
2023-05-05T04:25:35.809Z,12.49
2023-05-05T04:26:07.687Z,12.50
2023-05-05T04:26:41.700Z,12.46
2023-05-05T04:27:13.283Z,12.44
2023-05-05T04:27:44.814Z,12.42
2023-05-05T04:28:16.471Z,12.43
2023-05-05T04:28:48.081Z,12.43
2023-05-05T04:29:21.051Z,12.45
2023-05-05T04:29:52.658Z,12.40
2023-05-05T04:30:24.370Z,12.41
2023-05-05T04:30:55.937Z,12.40
2023-05-05T04:31:28.116Z,12.30
2023-05-05T04:31:59.696Z,12.31
2023-05-05T04:32:31.878Z,12.37
2023-05-05T04:33:03.761Z,12.42
2023-05-05T04:33:35.778Z,12.45
2023-05-05T04:34:08.229Z,12.38
2023-05-05T04:34:39.864Z,12.45
2023-05-05T04:35:11.481Z,12.50
2023-05-05T04:35:43.363Z,12.56
2023-05-05T04:36:15.249Z,12.57
2023-05-05T04:36:46.829Z,12.62
2023-05-05T04:37:18.838Z,12.65
2023-05-05T04:37:50.633Z,12.73
2023-05-05T04:38:22.430Z,12.78
2023-05-05T04:38:54.021Z,12.80
2023-05-05T04:39:25.659Z,12.82
2023-05-05T04:39:57.448Z,12.89
2023-05-05T04:40:30.123Z,12.90
2023-05-05T04:41:06.538Z,12.99
2023-05-05T04:41:39.045Z,12.90
2023-05-05T04:42:10.996Z,12.78
2023-05-05T04:42:42.570Z,12.79
2023-05-05T04:43:14.236Z,12.76
2023-05-05T04:43:46.148Z,12.72
2023-05-05T04:44:18.383Z,12.74
2023-05-05T04:44:50.141Z,12.79
2023-05-05T04:45:22.291Z,12.81
2023-05-05T04:45:56.822Z,12.82
2023-05-05T04:46:34.758Z,12.88
2023-05-05T04:47:06.352Z,12.82
2023-05-05T04:47:41.463Z,12.84
2023-05-05T04:48:13.032Z,12.89
2023-05-05T04:48:44.570Z,13.00
2023-05-05T04:49:16.222Z,13.07
2023-05-05T04:49:48.077Z,13.06
2023-05-05T04:50:19.727Z,13.14
2023-05-05T04:50:51.441Z,13.14
2023-05-05T04:51:22.980Z,13.25
2023-05-05T04:51:54.570Z,13.25
2023-05-05T04:52:26.317Z,13.07
2023-05-05T04:52:58.044Z,13.14
2023-05-05T04:53:29.719Z,13.05
2023-05-05T04:54:01.365Z,13.07
2023-05-05T04:55:09.483Z,13.25
2023-05-05T04:55:41.162Z,13.38
2023-05-05T04:56:13.025Z,13.39
2023-05-05T04:56:44.557Z,13.47
2023-05-05T04:57:16.205Z,13.58
2023-05-05T04:57:47.726Z,13.63
2023-05-05T04:58:19.232Z,13.65
2023-05-05T04:58:50.953Z,13.50
2023-05-05T04:59:22.561Z,13.62
2023-05-05T04:59:54.128Z,13.52
2023-05-05T05:00:25.712Z,13.65
2023-05-05T05:00:58.064Z,13.70
2023-05-05T05:01:29.645Z,13.76
2023-05-05T05:02:01.322Z,13.78
2023-05-05T05:02:33.084Z,13.87
2023-05-05T05:03:04.986Z,13.84
2023-05-05T05:03:36.862Z,13.87
2023-05-05T05:04:10.512Z,13.82
2023-05-05T05:04:42.055Z,13.75
2023-05-05T05:05:13.733Z,13.65
2023-05-05T05:05:45.249Z,13.64
2023-05-05T05:06:16.975Z,13.69
2023-05-05T05:06:48.499Z,13.74
2023-05-05T05:07:20.328Z,13.75
2023-05-05T05:07:51.895Z,13.83
2023-05-05T05:08:24.051Z,13.74
2023-05-05T05:08:55.740Z,13.79
2023-05-05T05:09:27.446Z,13.76
2023-05-05T05:09:59.276Z,13.78
2023-05-05T05:10:30.916Z,13.75
2023-05-05T05:11:02.430Z,13.75
2023-05-05T05:11:34.076Z,13.76
2023-05-05T05:12:07.368Z,13.73
2023-05-05T05:12:40.273Z,13.82
2023-05-05T05:13:12.944Z,13.78
2023-05-05T05:13:44.770Z,13.75
2023-05-05T05:14:17.398Z,13.72
2023-05-05T05:14:48.939Z,13.68
2023-05-05T05:15:20.576Z,13.53
2023-05-05T05:15:52.464Z,13.54
2023-05-05T05:16:25.398Z,13.56
2023-05-05T05:16:57.078Z,13.69
2023-05-05T05:17:30.573Z,13.76
2023-05-05T05:18:03.046Z,13.81
2023-05-05T05:18:34.605Z,13.81
2023-05-05T05:19:06.146Z,13.82
2023-05-05T05:19:37.875Z,13.67
2023-05-05T05:20:10.096Z,13.69
2023-05-05T05:20:42.073Z,13.81
2023-05-05T05:21:13.874Z,13.85
2023-05-05T05:21:45.416Z,13.83
2023-05-05T05:22:16.969Z,13.94
2023-05-05T05:22:49.227Z,14.01
2023-05-05T05:23:23.545Z,13.98
2023-05-05T05:23:55.600Z,13.97
2023-05-05T05:24:27.184Z,13.98
2023-05-05T05:24:58.969Z,13.83
2023-05-05T05:25:30.580Z,13.76
2023-05-05T05:26:02.578Z,13.85
2023-05-05T05:26:34.722Z,13.95
2023-05-05T05:27:10.147Z,14.20
2023-05-05T05:27:43.594Z,14.17
2023-05-05T05:28:16.118Z,14.13
2023-05-05T05:28:52.929Z,14.33
2023-05-05T05:29:24.528Z,14.44
2023-05-05T05:29:56.070Z,14.56
2023-05-05T05:30:29.027Z,14.56
2023-05-05T05:31:00.680Z,14.65
2023-05-05T05:31:34.350Z,14.69
2023-05-05T05:32:06.383Z,14.78
2023-05-05T05:32:38.319Z,14.77
2023-05-05T05:33:10.694Z,14.83
2023-05-05T05:33:42.398Z,14.89
2023-05-05T05:34:14.030Z,14.89
2023-05-05T05:34:46.377Z,14.88
2023-05-05T05:35:18.269Z,14.98
2023-05-05T05:35:49.997Z,15.08
2023-05-05T05:36:23.805Z,15.24
2023-05-05T05:36:55.433Z,15.50
2023-05-05T05:37:31.052Z,15.75
2023-05-05T05:38:03.664Z,16.08
2023-05-05T05:38:35.261Z,15.94
2023-05-05T05:39:08.753Z,16.15
2023-05-05T05:39:42.729Z,16.26
2023-05-05T05:40:15.565Z,16.44
2023-05-05T05:40:47.101Z,16.60
2023-05-05T05:41:19.022Z,16.80
2023-05-05T05:41:50.592Z,16.81
2023-05-05T05:42:22.777Z,16.92
2023-05-05T05:42:54.420Z,17.07
2023-05-05T05:43:26.031Z,17.41
2023-05-05T05:43:57.546Z,17.56
2023-05-05T05:44:29.456Z,17.41
2023-05-05T05:45:01.485Z,17.42
2023-05-05T05:45:33.099Z,17.92
2023-05-05T05:46:07.526Z,17.75
2023-05-05T05:46:40.864Z,17.58
2023-05-05T05:47:12.537Z,17.49
2023-05-05T05:47:44.237Z,17.34
2023-05-05T05:48:16.170Z,17.27
2023-05-05T05:48:50.318Z,17.14
2023-05-05T05:49:22.436Z,17.43
2023-05-05T05:49:54.083Z,17.50
2023-05-05T05:50:28.517Z,17.66
2023-05-05T05:51:02.461Z,17.63
2023-05-05T05:51:34.029Z,17.58
2023-05-05T05:52:06.750Z,17.95
2023-05-05T05:52:38.285Z,18.19
2023-05-05T05:53:10.915Z,18.08
2023-05-05T05:53:42.805Z,18.10
2023-05-05T05:54:14.380Z,18.02
2023-05-05T05:54:46.851Z,18.06
2023-05-05T05:55:18.512Z,18.08
2023-05-05T05:55:50.263Z,18.21
2023-05-05T05:56:22.164Z,18.26
2023-05-05T05:56:54.622Z,18.11
2023-05-05T05:57:26.217Z,18.15
2023-05-05T05:57:58.396Z,18.02
2023-05-05T05:58:30.424Z,18.50
2023-05-05T05:59:04.539Z,18.43
2023-05-05T05:59:36.220Z,18.26
2023-05-05T06:00:08.823Z,18.43
2023-05-05T06:00:51.509Z,18.34
2023-05-05T06:01:23.064Z,18.34
2023-05-05T06:01:55.715Z,18.06
2023-05-05T06:02:27.584Z,18.15
2023-05-05T06:02:59.491Z,18.07
2023-05-05T06:03:34.885Z,18.08
2023-05-05T06:04:06.555Z,18.13
2023-05-05T06:04:38.198Z,18.20
2023-05-05T06:05:10.452Z,18.36
2023-05-05T06:05:42.030Z,18.46
2023-05-05T06:06:13.820Z,18.57
2023-05-05T06:06:45.537Z,18.75
2023-05-05T06:07:17.306Z,18.77
2023-05-05T06:07:49.025Z,19.03
2023-05-05T06:08:22.028Z,19.37
2023-05-05T06:08:57.291Z,19.57
2023-05-05T06:09:28.898Z,19.78
2023-05-05T06:10:10.824Z,19.73
2023-05-05T06:10:50.729Z,20.03
2023-05-05T06:11:24.639Z,19.95
2023-05-05T06:11:56.326Z,19.97
2023-05-05T06:12:27.865Z,20.24
2023-05-05T06:12:59.557Z,20.36
2023-05-05T06:13:31.283Z,20.34
2023-05-05T06:14:02.929Z,20.50
2023-05-05T06:14:34.571Z,20.68
2023-05-05T06:15:06.744Z,21.14
2023-05-05T06:15:38.314Z,21.32
2023-05-05T06:16:11.129Z,21.37
2023-05-05T06:16:44.935Z,21.78
2023-05-05T06:17:21.249Z,21.88
2023-05-05T06:17:52.838Z,21.97
2023-05-05T06:18:24.710Z,21.80
2023-05-05T06:18:56.544Z,22.17
2023-05-05T06:19:28.353Z,22.24
2023-05-05T06:19:59.879Z,22.29
2023-05-05T06:20:31.919Z,23.08
2023-05-05T06:21:03.557Z,22.39
2023-05-05T06:21:36.495Z,22.46
2023-05-05T06:22:08.172Z,22.66
2023-05-05T06:22:40.219Z,22.46
2023-05-05T06:23:12.256Z,22.72
2023-05-05T06:23:48.195Z,22.22
2023-05-05T06:24:20.092Z,22.34
2023-05-05T06:24:51.648Z,22.56
2023-05-05T06:25:24.087Z,23.01
2023-05-05T06:25:56.706Z,22.76
2023-05-05T06:26:28.706Z,22.56
2023-05-05T06:27:00.596Z,22.83
2023-05-05T06:27:32.125Z,22.83
2023-05-05T06:28:05.740Z,22.72
2023-05-05T06:28:37.521Z,22.76
2023-05-05T06:29:10.515Z,23.16
2023-05-05T06:29:43.688Z,22.79
2023-05-05T06:30:15.306Z,22.79
2023-05-05T06:30:46.840Z,22.43
2023-05-05T06:31:18.462Z,23.08
2023-05-05T06:31:50.159Z,22.85
2023-05-05T06:32:21.751Z,22.93
2023-05-05T06:32:54.338Z,23.77
2023-05-05T06:33:26.060Z,23.44
2023-05-05T06:33:57.589Z,23.46
2023-05-05T06:34:29.148Z,23.50
2023-05-05T06:35:00.963Z,23.28
2023-05-05T06:35:32.698Z,23.35
2023-05-05T06:36:04.546Z,23.42
2023-05-05T06:36:36.399Z,23.50
2023-05-05T06:37:07.932Z,23.81
2023-05-05T06:37:39.676Z,23.65
2023-05-05T06:38:13.271Z,22.99
2023-05-05T06:38:44.812Z,23.40
2023-05-05T06:39:16.386Z,23.34
2023-05-05T06:39:47.993Z,24.17
2023-05-05T06:40:19.564Z,23.96
2023-05-05T06:40:51.184Z,23.84
2023-05-05T06:41:22.758Z,23.97
2023-05-05T06:41:54.282Z,24.07
2023-05-05T06:42:25.921Z,23.84
2023-05-05T06:42:58.343Z,23.68
2023-05-05T06:43:34.345Z,24.40
2023-05-05T06:44:11.405Z,24.21
2023-05-05T06:44:43.199Z,24.23
2023-05-05T06:45:14.940Z,24.64
2023-05-05T06:45:46.482Z,23.85
2023-05-05T06:46:18.175Z,24.33
2023-05-05T06:46:51.266Z,24.13
2023-05-05T06:47:23.080Z,23.31
2023-05-05T06:47:54.718Z,23.53
2023-05-05T06:48:26.259Z,23.90
2023-05-05T06:48:57.814Z,24.07
2023-05-05T06:49:29.392Z,24.11
2023-05-05T06:50:01.107Z,24.51
2023-05-05T06:50:32.877Z,23.84
2023-05-05T06:51:04.530Z,24.53
2023-05-05T06:51:36.056Z,24.04
2023-05-05T06:52:08.388Z,24.30
2023-05-05T06:52:39.975Z,23.99
2023-05-05T06:53:11.594Z,24.24
2023-05-05T06:53:43.130Z,24.67
2023-05-05T06:54:14.640Z,24.39
2023-05-05T06:54:46.249Z,24.32
2023-05-05T06:55:17.946Z,24.00
2023-05-05T06:55:49.515Z,24.20
2023-05-05T06:56:21.222Z,23.97
2023-05-05T06:56:53.194Z,24.20
2023-05-05T06:57:24.811Z,24.90
2023-05-05T06:57:56.476Z,24.95
2023-05-05T06:58:28.027Z,24.93
2023-05-05T06:58:59.619Z,24.92
2023-05-05T06:59:31.144Z,25.44
2023-05-05T07:00:05.642Z,25.85
2023-05-05T07:00:38.992Z,25.38
2023-05-05T07:01:11.169Z,24.78
2023-05-05T07:01:42.812Z,24.74
2023-05-05T07:02:14.367Z,25.12
2023-05-05T07:02:47.506Z,25.34
2023-05-05T07:03:19.264Z,24.56
2023-05-05T07:03:51.071Z,25.22
2023-05-05T07:04:22.655Z,24.76
2023-05-05T07:04:55.546Z,25.10
2023-05-05T07:05:27.184Z,24.87
2023-05-05T07:05:58.803Z,25.74
2023-05-05T07:06:32.128Z,25.67
2023-05-05T07:07:03.811Z,25.61
2023-05-05T07:07:36.346Z,25.75
2023-05-05T07:08:09.067Z,25.53
2023-05-05T07:08:40.703Z,25.20
2023-05-05T07:09:12.693Z,25.52
2023-05-05T07:09:45.086Z,25.60
2023-05-05T07:10:16.914Z,25.76
2023-05-05T07:10:48.980Z,25.52
2023-05-05T07:11:20.745Z,25.67
2023-05-05T07:11:52.264Z,25.45
2023-05-05T07:12:23.893Z,25.45
2023-05-05T07:12:55.435Z,25.22
2023-05-05T07:13:27.197Z,25.44
2023-05-05T07:13:58.761Z,25.82
2023-05-05T07:14:30.679Z,26.12
2023-05-05T07:15:09.561Z,26.44